sensor_id;sensor_type;location;lat;lon;timestamp;pressure;altitude;pressure_sealevel;temperature;humidity
16613;BME280;8419;52.358;9.752;2024-03-08T00:02:07;101569.00;;;9.08;39.86
16613;BME280;8419;52.358;9.752;2024-03-08T00:04:52;101569.00;;;9.11;39.74
16613;BME280;8419;52.358;9.752;2024-03-08T00:07:38;101563.00;;;9.04;39.76
16613;BME280;8419;52.358;9.752;2024-03-08T00:10:24;101567.00;;;9.06;39.79
16613;BME280;8419;52.358;9.752;2024-03-08T00:13:10;101569.00;;;9.05;39.75
16613;BME280;8419;52.358;9.752;2024-03-08T00:15:55;101566.00;;;8.93;39.96
16613;BME280;8419;52.358;9.752;2024-03-08T00:18:42;101563.00;;;8.91;39.96
16613;BME280;8419;52.358;9.752;2024-03-08T00:21:28;101565.00;;;8.96;39.87
16613;BME280;8419;52.358;9.752;2024-03-08T00:24:13;101568.00;;;8.94;39.86
16613;BME280;8419;52.358;9.752;2024-03-08T00:26:59;101561.00;;;8.93;39.85
16613;BME280;8419;52.358;9.752;2024-03-08T00:29:44;101573.00;;;8.88;39.85
16613;BME280;8419;52.358;9.752;2024-03-08T00:32:29;101569.00;;;8.83;40.03
16613;BME280;8419;52.358;9.752;2024-03-08T00:35:16;101568.00;;;8.76;40.14
16613;BME280;8419;52.358;9.752;2024-03-08T00:38:03;101568.00;;;8.73;40.18
16613;BME280;8419;52.358;9.752;2024-03-08T00:40:48;101567.00;;;8.71;40.19
16613;BME280;8419;52.358;9.752;2024-03-08T00:43:33;101561.00;;;8.67;40.25
16613;BME280;8419;52.358;9.752;2024-03-08T00:46:19;101559.00;;;8.83;39.92
16613;BME280;8419;52.358;9.752;2024-03-08T00:49:04;101557.00;;;8.85;39.85
16613;BME280;8419;52.358;9.752;2024-03-08T00:51:51;101557.00;;;8.73;40.03
16613;BME280;8419;52.358;9.752;2024-03-08T00:54:37;101550.00;;;8.79;39.84
16613;BME280;8419;52.358;9.752;2024-03-08T00:57:23;101543.00;;;8.77;39.86
16613;BME280;8419;52.358;9.752;2024-03-08T01:00:10;101543.00;;;8.74;39.93
16613;BME280;8419;52.358;9.752;2024-03-08T01:02:57;101543.00;;;8.74;39.89
16613;BME280;8419;52.358;9.752;2024-03-08T01:05:42;101541.00;;;8.74;39.87
16613;BME280;8419;52.358;9.752;2024-03-08T01:08:28;101540.00;;;8.69;39.92
16613;BME280;8419;52.358;9.752;2024-03-08T01:11:13;101523.00;;;8.62;40.02
16613;BME280;8419;52.358;9.752;2024-03-08T01:13:59;101529.00;;;8.56;40.11
16613;BME280;8419;52.358;9.752;2024-03-08T01:16:44;101524.00;;;8.59;40.03
16613;BME280;8419;52.358;9.752;2024-03-08T01:19:29;101522.00;;;8.47;40.21
16613;BME280;8419;52.358;9.752;2024-03-08T01:22:17;101521.00;;;8.39;40.40
16613;BME280;8419;52.358;9.752;2024-03-08T01:25:03;101516.00;;;8.35;40.47
16613;BME280;8419;52.358;9.752;2024-03-08T01:27:49;101509.00;;;8.35;40.48
16613;BME280;8419;52.358;9.752;2024-03-08T01:30:34;101510.00;;;8.36;40.48
16613;BME280;8419;52.358;9.752;2024-03-08T01:33:23;101501.00;;;8.35;40.49
16613;BME280;8419;52.358;9.752;2024-03-08T01:36:10;101498.00;;;8.29;40.58
16613;BME280;8419;52.358;9.752;2024-03-08T01:38:55;101491.00;;;8.26;40.67
16613;BME280;8419;52.358;9.752;2024-03-08T01:41:41;101489.00;;;8.28;40.62
16613;BME280;8419;52.358;9.752;2024-03-08T01:44:26;101489.00;;;8.33;40.49
16613;BME280;8419;52.358;9.752;2024-03-08T01:47:12;101481.00;;;8.31;40.50
16613;BME280;8419;52.358;9.752;2024-03-08T01:49:57;101471.00;;;8.30;40.42
16613;BME280;8419;52.358;9.752;2024-03-08T01:52:43;101474.00;;;8.24;40.58
16613;BME280;8419;52.358;9.752;2024-03-08T01:55:29;101475.00;;;8.25;40.53
16613;BME280;8419;52.358;9.752;2024-03-08T01:58:14;101467.00;;;8.18;40.64
16613;BME280;8419;52.358;9.752;2024-03-08T02:01:00;101470.00;;;8.18;40.63
16613;BME280;8419;52.358;9.752;2024-03-08T02:03:50;101463.00;;;8.17;40.66
16613;BME280;8419;52.358;9.752;2024-03-08T02:06:35;101456.00;;;8.13;40.67
16613;BME280;8419;52.358;9.752;2024-03-08T02:09:22;101465.00;;;8.12;40.69
16613;BME280;8419;52.358;9.752;2024-03-08T02:12:10;101449.00;;;8.08;40.74
16613;BME280;8419;52.358;9.752;2024-03-08T02:14:56;101451.00;;;8.06;40.78
16613;BME280;8419;52.358;9.752;2024-03-08T02:17:41;101453.00;;;8.05;40.79
16613;BME280;8419;52.358;9.752;2024-03-08T02:20:29;101452.00;;;8.03;40.85
16613;BME280;8419;52.358;9.752;2024-03-08T02:23:14;101454.00;;;8.03;40.86
16613;BME280;8419;52.358;9.752;2024-03-08T02:26:00;101447.00;;;7.99;40.88
16613;BME280;8419;52.358;9.752;2024-03-08T02:28:46;101446.00;;;7.98;40.87
16613;BME280;8419;52.358;9.752;2024-03-08T02:31:32;101446.00;;;8.07;40.71
16613;BME280;8419;52.358;9.752;2024-03-08T02:34:17;101441.00;;;8.12;40.55
16613;BME280;8419;52.358;9.752;2024-03-08T02:37:03;101446.00;;;8.12;40.50
16613;BME280;8419;52.358;9.752;2024-03-08T02:39:48;101438.00;;;8.07;40.56
16613;BME280;8419;52.358;9.752;2024-03-08T02:42:33;101437.00;;;8.08;40.56
16613;BME280;8419;52.358;9.752;2024-03-08T02:45:19;101438.00;;;8.03;40.68
16613;BME280;8419;52.358;9.752;2024-03-08T02:48:06;101435.00;;;7.89;40.89
16613;BME280;8419;52.358;9.752;2024-03-08T02:50:52;101434.00;;;7.83;41.04
16613;BME280;8419;52.358;9.752;2024-03-08T02:53:38;101434.00;;;7.80;41.07
16613;BME280;8419;52.358;9.752;2024-03-08T02:56:23;101421.00;;;7.77;41.12
16613;BME280;8419;52.358;9.752;2024-03-08T02:59:08;101423.00;;;7.75;41.17
16613;BME280;8419;52.358;9.752;2024-03-08T03:01:54;101417.00;;;7.75;41.15
16613;BME280;8419;52.358;9.752;2024-03-08T03:04:40;101413.00;;;7.72;41.19
16613;BME280;8419;52.358;9.752;2024-03-08T03:07:25;101407.00;;;7.81;41.01
16613;BME280;8419;52.358;9.752;2024-03-08T03:10:12;101406.00;;;7.68;41.25
16613;BME280;8419;52.358;9.752;2024-03-08T03:12:57;101400.00;;;7.71;41.18
16613;BME280;8419;52.358;9.752;2024-03-08T03:15:42;101399.00;;;7.69;41.25
16613;BME280;8419;52.358;9.752;2024-03-08T03:18:27;101389.00;;;7.66;41.26
16613;BME280;8419;52.358;9.752;2024-03-08T03:21:13;101400.00;;;7.73;41.12
16613;BME280;8419;52.358;9.752;2024-03-08T03:23:59;101393.00;;;7.64;41.25
16613;BME280;8419;52.358;9.752;2024-03-08T03:26:44;101391.00;;;7.63;41.30
16613;BME280;8419;52.358;9.752;2024-03-08T03:29:31;101385.00;;;7.59;41.33
16613;BME280;8419;52.358;9.752;2024-03-08T03:32:16;101385.00;;;7.53;41.45
16613;BME280;8419;52.358;9.752;2024-03-08T03:35:05;101393.00;;;7.56;41.37
16613;BME280;8419;52.358;9.752;2024-03-08T03:37:50;101390.00;;;7.56;41.38
16613;BME280;8419;52.358;9.752;2024-03-08T03:40:46;101386.00;;;7.56;41.36
16613;BME280;8419;52.358;9.752;2024-03-08T03:43:33;101387.00;;;7.64;41.17
16613;BME280;8419;52.358;9.752;2024-03-08T03:46:19;101388.00;;;7.58;41.22
16613;BME280;8419;52.358;9.752;2024-03-08T03:49:04;101389.00;;;7.66;41.06
16613;BME280;8419;52.358;9.752;2024-03-08T03:51:50;101385.00;;;7.65;41.04
16613;BME280;8419;52.358;9.752;2024-03-08T03:54:35;101384.00;;;7.65;41.05
16613;BME280;8419;52.358;9.752;2024-03-08T03:57:20;101389.00;;;7.60;41.11
16613;BME280;8419;52.358;9.752;2024-03-08T04:00:09;101386.00;;;7.58;41.09
16613;BME280;8419;52.358;9.752;2024-03-08T04:02:55;101384.00;;;7.46;41.41
16613;BME280;8419;52.358;9.752;2024-03-08T04:05:43;101381.00;;;7.51;41.22
16613;BME280;8419;52.358;9.752;2024-03-08T04:08:28;101381.00;;;7.54;41.12
16613;BME280;8419;52.358;9.752;2024-03-08T04:11:14;101379.00;;;7.47;41.21
16613;BME280;8419;52.358;9.752;2024-03-08T04:14:01;101389.00;;;7.46;41.20
16613;BME280;8419;52.358;9.752;2024-03-08T04:16:47;101380.00;;;7.44;41.17
16613;BME280;8419;52.358;9.752;2024-03-08T04:19:33;101386.00;;;7.43;41.17
16613;BME280;8419;52.358;9.752;2024-03-08T04:22:19;101379.00;;;7.43;41.13
16613;BME280;8419;52.358;9.752;2024-03-08T04:25:06;101381.00;;;7.38;41.17
16613;BME280;8419;52.358;9.752;2024-03-08T04:27:52;101370.00;;;7.36;41.20
16613;BME280;8419;52.358;9.752;2024-03-08T04:30:38;101374.00;;;7.34;41.19
16613;BME280;8419;52.358;9.752;2024-03-08T04:33:24;101374.00;;;7.31;41.27
16613;BME280;8419;52.358;9.752;2024-03-08T04:36:09;101370.00;;;7.29;41.24
16613;BME280;8419;52.358;9.752;2024-03-08T04:38:58;101369.00;;;7.25;41.29
16613;BME280;8419;52.358;9.752;2024-03-08T04:41:43;101367.00;;;7.21;41.35
16613;BME280;8419;52.358;9.752;2024-03-08T04:44:28;101373.00;;;7.18;41.43
16613;BME280;8419;52.358;9.752;2024-03-08T04:47:14;101359.00;;;7.18;41.39
16613;BME280;8419;52.358;9.752;2024-03-08T04:49:59;101352.00;;;7.15;41.40
16613;BME280;8419;52.358;9.752;2024-03-08T04:52:45;101356.00;;;7.13;41.42
16613;BME280;8419;52.358;9.752;2024-03-08T04:55:31;101354.00;;;7.13;41.43
16613;BME280;8419;52.358;9.752;2024-03-08T04:58:16;101345.00;;;7.10;41.48
16613;BME280;8419;52.358;9.752;2024-03-08T05:01:02;101351.00;;;7.13;41.45
16613;BME280;8419;52.358;9.752;2024-03-08T05:03:48;101347.00;;;7.12;41.47
16613;BME280;8419;52.358;9.752;2024-03-08T05:06:35;101348.00;;;7.08;41.51
16613;BME280;8419;52.358;9.752;2024-03-08T05:09:21;101345.00;;;7.05;41.55
16613;BME280;8419;52.358;9.752;2024-03-08T05:12:08;101339.00;;;6.98;41.69
16613;BME280;8419;52.358;9.752;2024-03-08T05:14:54;101338.00;;;6.97;41.72
16613;BME280;8419;52.358;9.752;2024-03-08T05:17:40;101339.00;;;6.92;41.84
16613;BME280;8419;52.358;9.752;2024-03-08T05:20:27;101344.00;;;6.92;41.79
16613;BME280;8419;52.358;9.752;2024-03-08T05:23:12;101338.00;;;6.91;41.78
16613;BME280;8419;52.358;9.752;2024-03-08T05:25:58;101336.00;;;6.89;41.80
16613;BME280;8419;52.358;9.752;2024-03-08T05:28:43;101340.00;;;6.88;41.80
16613;BME280;8419;52.358;9.752;2024-03-08T05:31:30;101346.00;;;6.84;41.85
16613;BME280;8419;52.358;9.752;2024-03-08T05:34:16;101342.00;;;6.85;41.87
16613;BME280;8419;52.358;9.752;2024-03-08T05:37:02;101338.00;;;6.70;42.02
16613;BME280;8419;52.358;9.752;2024-03-08T05:39:47;101335.00;;;6.74;42.21
16613;BME280;8419;52.358;9.752;2024-03-08T05:42:33;101343.00;;;6.54;42.56
16613;BME280;8419;52.358;9.752;2024-03-08T05:45:18;101337.00;;;6.81;42.07
16613;BME280;8419;52.358;9.752;2024-03-08T05:48:06;101339.00;;;6.86;41.99
16613;BME280;8419;52.358;9.752;2024-03-08T05:50:52;101340.00;;;6.67;42.38
16613;BME280;8419;52.358;9.752;2024-03-08T05:53:37;101339.00;;;6.70;42.34
16613;BME280;8419;52.358;9.752;2024-03-08T05:56:23;101339.00;;;6.86;42.13
16613;BME280;8419;52.358;9.752;2024-03-08T05:59:08;101342.00;;;6.68;42.51
16613;BME280;8419;52.358;9.752;2024-03-08T06:01:54;101341.00;;;6.66;42.63
16613;BME280;8419;52.358;9.752;2024-03-08T06:04:39;101340.00;;;6.67;42.67
16613;BME280;8419;52.358;9.752;2024-03-08T06:07:25;101335.00;;;6.99;42.01
16613;BME280;8419;52.358;9.752;2024-03-08T06:10:11;101339.00;;;7.03;41.91
16613;BME280;8419;52.358;9.752;2024-03-08T06:12:58;101345.00;;;7.05;41.91
16613;BME280;8419;52.358;9.752;2024-03-08T06:15:43;101346.00;;;6.90;42.06
16613;BME280;8419;52.358;9.752;2024-03-08T06:18:28;101347.00;;;7.06;41.92
16613;BME280;8419;52.358;9.752;2024-03-08T06:21:14;101345.00;;;6.83;42.36
16613;BME280;8419;52.358;9.752;2024-03-08T06:27:13;101333.00;;;6.81;42.56
16613;BME280;8419;52.358;9.752;2024-03-08T06:29:58;101337.00;;;6.95;42.34
16613;BME280;8419;52.358;9.752;2024-03-08T06:32:43;101330.00;;;6.85;42.49
16613;BME280;8419;52.358;9.752;2024-03-08T06:35:29;101327.00;;;6.85;42.60
16613;BME280;8419;52.358;9.752;2024-03-08T06:38:17;101340.00;;;6.88;42.61
16613;BME280;8419;52.358;9.752;2024-03-08T06:41:03;101330.00;;;7.05;42.43
16613;BME280;8419;52.358;9.752;2024-03-08T06:43:48;101331.00;;;7.25;41.94
16613;BME280;8419;52.358;9.752;2024-03-08T06:46:36;101333.00;;;7.30;41.85
16613;BME280;8419;52.358;9.752;2024-03-08T06:49:23;101328.00;;;7.35;41.81
16613;BME280;8419;52.358;9.752;2024-03-08T06:52:08;101335.00;;;7.40;41.76
16613;BME280;8419;52.358;9.752;2024-03-08T06:54:54;101333.00;;;7.44;41.78
16613;BME280;8419;52.358;9.752;2024-03-08T06:57:39;101335.00;;;7.50;41.71
16613;BME280;8419;52.358;9.752;2024-03-08T07:00:25;101330.00;;;7.52;41.68
16613;BME280;8419;52.358;9.752;2024-03-08T07:03:14;101339.00;;;7.60;41.64
16613;BME280;8419;52.358;9.752;2024-03-08T07:06:02;101337.00;;;7.68;41.58
16613;BME280;8419;52.358;9.752;2024-03-08T07:08:52;101334.00;;;7.74;41.54
16613;BME280;8419;52.358;9.752;2024-03-08T07:11:37;101337.00;;;7.77;41.57
16613;BME280;8419;52.358;9.752;2024-03-08T07:14:23;101335.00;;;7.82;41.54
16613;BME280;8419;52.358;9.752;2024-03-08T07:17:08;101341.00;;;7.88;41.52
16613;BME280;8419;52.358;9.752;2024-03-08T07:19:54;101332.00;;;7.93;41.51
16613;BME280;8419;52.358;9.752;2024-03-08T07:22:39;101338.00;;;7.99;41.50
16613;BME280;8419;52.358;9.752;2024-03-08T07:25:25;101334.00;;;8.07;41.45
16613;BME280;8419;52.358;9.752;2024-03-08T07:28:13;101335.00;;;8.13;41.41
16613;BME280;8419;52.358;9.752;2024-03-08T07:30:59;101324.00;;;8.20;41.36
16613;BME280;8419;52.358;9.752;2024-03-08T07:33:59;101333.00;;;8.28;41.30
16613;BME280;8419;52.358;9.752;2024-03-08T07:36:45;101331.00;;;8.34;41.30
16613;BME280;8419;52.358;9.752;2024-03-08T07:39:30;101325.00;;;8.40;41.25
16613;BME280;8419;52.358;9.752;2024-03-08T07:42:15;101317.00;;;8.48;41.20
16613;BME280;8419;52.358;9.752;2024-03-08T07:45:02;101314.00;;;8.53;41.15
16613;BME280;8419;52.358;9.752;2024-03-08T07:47:49;101314.00;;;8.63;41.08
16613;BME280;8419;52.358;9.752;2024-03-08T07:50:36;101318.00;;;8.70;41.05
16613;BME280;8419;52.358;9.752;2024-03-08T07:53:22;101317.00;;;8.77;40.97
16613;BME280;8419;52.358;9.752;2024-03-08T07:56:09;101314.00;;;8.85;40.92
16613;BME280;8419;52.358;9.752;2024-03-08T07:58:58;101317.00;;;8.92;40.82
16613;BME280;8419;52.358;9.752;2024-03-08T08:01:44;101311.00;;;8.98;40.77
16613;BME280;8419;52.358;9.752;2024-03-08T08:04:29;101310.00;;;9.03;40.78
16613;BME280;8419;52.358;9.752;2024-03-08T08:07:15;101312.00;;;9.10;40.75
16613;BME280;8419;52.358;9.752;2024-03-08T08:10:00;101303.00;;;9.15;40.72
16613;BME280;8419;52.358;9.752;2024-03-08T08:12:46;101301.00;;;9.25;40.59
16613;BME280;8419;52.358;9.752;2024-03-08T08:15:32;101298.00;;;9.32;40.54
16613;BME280;8419;52.358;9.752;2024-03-08T08:18:19;101299.00;;;9.44;40.45
16613;BME280;8419;52.358;9.752;2024-03-08T08:21:06;101309.00;;;9.50;40.41
16613;BME280;8419;52.358;9.752;2024-03-08T08:23:52;101304.00;;;9.58;40.34
16613;BME280;8419;52.358;9.752;2024-03-08T08:26:37;101304.00;;;9.66;40.32
16613;BME280;8419;52.358;9.752;2024-03-08T08:29:22;101297.00;;;9.74;40.25
16613;BME280;8419;52.358;9.752;2024-03-08T08:32:08;101306.00;;;9.80;40.22
16613;BME280;8419;52.358;9.752;2024-03-08T08:34:55;101298.00;;;9.74;40.34
16613;BME280;8419;52.358;9.752;2024-03-08T08:37:40;101288.00;;;9.96;40.11
16613;BME280;8419;52.358;9.752;2024-03-08T08:40:26;101287.00;;;10.05;40.07
16613;BME280;8419;52.358;9.752;2024-03-08T08:43:11;101284.00;;;10.14;39.97
16613;BME280;8419;52.358;9.752;2024-03-08T08:45:57;101287.00;;;10.27;39.88
16613;BME280;8419;52.358;9.752;2024-03-08T08:48:43;101275.00;;;10.32;39.82
16613;BME280;8419;52.358;9.752;2024-03-08T08:51:30;101279.00;;;10.24;40.04
16613;BME280;8419;52.358;9.752;2024-03-08T08:54:16;101285.00;;;10.48;39.71
16613;BME280;8419;52.358;9.752;2024-03-08T08:57:01;101283.00;;;10.57;39.64
16613;BME280;8419;52.358;9.752;2024-03-08T08:59:53;101278.00;;;10.57;39.72
16613;BME280;8419;52.358;9.752;2024-03-08T09:02:38;101272.00;;;10.58;39.76
16613;BME280;8419;52.358;9.752;2024-03-08T09:05:24;101278.00;;;10.79;39.51
16613;BME280;8419;52.358;9.752;2024-03-08T09:08:09;101267.00;;;10.87;39.45
16613;BME280;8419;52.358;9.752;2024-03-08T09:10:55;101270.00;;;10.89;39.45
16613;BME280;8419;52.358;9.752;2024-03-08T09:13:43;101259.00;;;10.94;39.47
16613;BME280;8419;52.358;9.752;2024-03-08T09:16:31;101256.00;;;11.19;39.14
16613;BME280;8419;52.358;9.752;2024-03-08T09:19:18;101251.00;;;11.27;39.13
16613;BME280;8419;52.358;9.752;2024-03-08T09:22:04;101255.00;;;11.27;39.16
16613;BME280;8419;52.358;9.752;2024-03-08T09:24:50;101247.00;;;11.44;38.97
16613;BME280;8419;52.358;9.752;2024-03-08T09:27:37;101249.00;;;11.68;38.56
16613;BME280;8419;52.358;9.752;2024-03-08T09:30:22;101250.00;;;11.69;38.65
16613;BME280;8419;52.358;9.752;2024-03-08T09:33:09;101248.00;;;11.85;38.41
16613;BME280;8419;52.358;9.752;2024-03-08T09:35:54;101240.00;;;11.98;38.20
16613;BME280;8419;52.358;9.752;2024-03-08T09:38:44;101226.00;;;12.03;38.18
16613;BME280;8419;52.358;9.752;2024-03-08T09:41:30;101221.00;;;12.01;38.28
16613;BME280;8419;52.358;9.752;2024-03-08T09:44:16;101218.00;;;12.14;38.15
16613;BME280;8419;52.358;9.752;2024-03-08T09:47:01;101209.00;;;12.30;37.86
16613;BME280;8419;52.358;9.752;2024-03-08T09:49:47;101215.00;;;12.40;37.83
16613;BME280;8419;52.358;9.752;2024-03-08T09:52:32;101192.00;;;12.42;37.82
16613;BME280;8419;52.358;9.752;2024-03-08T09:55:18;101192.00;;;12.49;37.83
16613;BME280;8419;52.358;9.752;2024-03-08T09:58:08;101190.00;;;12.55;37.77
16613;BME280;8419;52.358;9.752;2024-03-08T10:01:31;101184.00;;;12.66;37.64
16613;BME280;8419;52.358;9.752;2024-03-08T10:04:16;101174.00;;;12.91;37.23
16613;BME280;8419;52.358;9.752;2024-03-08T10:07:02;101176.00;;;12.98;37.15
16613;BME280;8419;52.358;9.752;2024-03-08T10:09:47;101174.00;;;12.91;37.27
16613;BME280;8419;52.358;9.752;2024-03-08T10:12:35;101169.00;;;12.97;37.21
16613;BME280;8419;52.358;9.752;2024-03-08T10:15:21;101170.00;;;13.11;37.02
16613;BME280;8419;52.358;9.752;2024-03-08T10:18:07;101159.00;;;13.23;36.79
16613;BME280;8419;52.358;9.752;2024-03-08T10:21:07;101151.00;;;13.29;36.77
16613;BME280;8419;52.358;9.752;2024-03-08T10:23:56;101147.00;;;13.35;36.75
16613;BME280;8419;52.358;9.752;2024-03-08T10:26:41;101150.00;;;13.55;36.30
16613;BME280;8419;52.358;9.752;2024-03-08T10:29:28;101156.00;;;13.65;36.18
16613;BME280;8419;52.358;9.752;2024-03-08T10:32:14;101142.00;;;13.69;36.13
16613;BME280;8419;52.358;9.752;2024-03-08T10:35:00;101148.00;;;13.77;36.02
16613;BME280;8419;52.358;9.752;2024-03-08T10:37:48;101145.00;;;13.76;36.06
16613;BME280;8419;52.358;9.752;2024-03-08T10:40:35;101138.00;;;13.70;36.18
16613;BME280;8419;52.358;9.752;2024-03-08T10:43:26;101137.00;;;13.76;36.11
16613;BME280;8419;52.358;9.752;2024-03-08T10:46:21;101140.00;;;13.86;36.06
16613;BME280;8419;52.358;9.752;2024-03-08T10:49:17;101134.00;;;14.06;35.77
16613;BME280;8419;52.358;9.752;2024-03-08T10:52:04;101136.00;;;14.26;35.47
16613;BME280;8419;52.358;9.752;2024-03-08T10:54:55;101143.00;;;14.30;35.46
16613;BME280;8419;52.358;9.752;2024-03-08T10:57:43;101133.00;;;14.41;35.25
16613;BME280;8419;52.358;9.752;2024-03-08T11:00:29;101128.00;;;14.40;35.41
16613;BME280;8419;52.358;9.752;2024-03-08T11:03:44;101125.00;;;14.54;35.25
16613;BME280;8419;52.358;9.752;2024-03-08T11:06:41;101119.00;;;14.66;35.17
16613;BME280;8419;52.358;9.752;2024-03-08T11:09:30;101125.00;;;14.71;35.06
16613;BME280;8419;52.358;9.752;2024-03-08T11:12:25;101121.00;;;14.81;34.88
16613;BME280;8419;52.358;9.752;2024-03-08T11:15:12;101106.00;;;14.91;34.76
16613;BME280;8419;52.358;9.752;2024-03-08T11:18:00;101105.00;;;14.89;34.73
16613;BME280;8419;52.358;9.752;2024-03-08T11:20:47;101094.00;;;14.95;34.59
16613;BME280;8419;52.358;9.752;2024-03-08T11:23:33;101094.00;;;15.05;34.54
16613;BME280;8419;52.358;9.752;2024-03-08T11:26:23;101095.00;;;15.21;34.34
16613;BME280;8419;52.358;9.752;2024-03-08T11:29:34;101077.00;;;15.35;34.20
16613;BME280;8419;52.358;9.752;2024-03-08T11:32:21;101070.00;;;15.55;34.00
16613;BME280;8419;52.358;9.752;2024-03-08T11:35:10;101053.00;;;15.61;33.90
16613;BME280;8419;52.358;9.752;2024-03-08T11:38:03;101075.00;;;15.63;33.74
16613;BME280;8419;52.358;9.752;2024-03-08T11:40:50;101063.00;;;15.49;33.88
16613;BME280;8419;52.358;9.752;2024-03-08T11:43:36;101044.00;;;15.54;33.93
16613;BME280;8419;52.358;9.752;2024-03-08T11:46:24;101051.00;;;15.74;33.62
16613;BME280;8419;52.358;9.752;2024-03-08T11:49:09;101032.00;;;15.89;33.42
16613;BME280;8419;52.358;9.752;2024-03-08T11:51:57;101019.00;;;15.83;33.42
16613;BME280;8419;52.358;9.752;2024-03-08T11:54:47;101021.00;;;16.00;33.17
16613;BME280;8419;52.358;9.752;2024-03-08T11:57:35;101008.00;;;16.24;33.00
16613;BME280;8419;52.358;9.752;2024-03-08T12:00:21;101017.00;;;16.36;32.94
16613;BME280;8419;52.358;9.752;2024-03-08T12:03:09;101012.00;;;16.71;32.60
16613;BME280;8419;52.358;9.752;2024-03-08T12:05:58;101006.00;;;16.89;32.38
16613;BME280;8419;52.358;9.752;2024-03-08T12:08:46;101004.00;;;17.17;32.00
16613;BME280;8419;52.358;9.752;2024-03-08T12:11:34;100999.00;;;17.11;32.14
16613;BME280;8419;52.358;9.752;2024-03-08T12:14:21;100996.00;;;17.25;32.01
16613;BME280;8419;52.358;9.752;2024-03-08T12:17:07;100984.00;;;17.45;31.81
16613;BME280;8419;52.358;9.752;2024-03-08T12:19:54;100982.00;;;17.61;31.47
16613;BME280;8419;52.358;9.752;2024-03-08T12:22:42;100965.00;;;17.64;31.32
16613;BME280;8419;52.358;9.752;2024-03-08T12:25:31;100975.00;;;17.89;30.83
16613;BME280;8419;52.358;9.752;2024-03-08T12:28:18;100976.00;;;17.86;30.81
16613;BME280;8419;52.358;9.752;2024-03-08T12:31:07;100969.00;;;18.10;30.60
16613;BME280;8419;52.358;9.752;2024-03-08T12:33:55;100966.00;;;18.37;30.26
16613;BME280;8419;52.358;9.752;2024-03-08T12:36:46;100959.00;;;18.67;29.94
16613;BME280;8419;52.358;9.752;2024-03-08T12:39:32;100955.00;;;18.86;29.71
16613;BME280;8419;52.358;9.752;2024-03-08T12:42:18;100950.00;;;19.13;29.42
16613;BME280;8419;52.358;9.752;2024-03-08T12:45:06;100949.00;;;19.40;28.94
16613;BME280;8419;52.358;9.752;2024-03-08T12:47:55;100949.00;;;19.48;28.62
16613;BME280;8419;52.358;9.752;2024-03-08T12:50:41;100940.00;;;19.62;28.48
16613;BME280;8419;52.358;9.752;2024-03-08T12:53:29;100930.00;;;19.76;28.21
16613;BME280;8419;52.358;9.752;2024-03-08T12:56:19;100930.00;;;19.91;28.05
16613;BME280;8419;52.358;9.752;2024-03-08T12:59:13;100924.00;;;20.11;27.79
16613;BME280;8419;52.358;9.752;2024-03-08T13:01:59;100912.00;;;20.38;27.43
16613;BME280;8419;52.358;9.752;2024-03-08T13:04:44;100913.00;;;20.53;27.22
16613;BME280;8419;52.358;9.752;2024-03-08T13:07:30;100902.00;;;20.70;27.09
16613;BME280;8419;52.358;9.752;2024-03-08T13:10:16;100915.00;;;20.94;26.77
16613;BME280;8419;52.358;9.752;2024-03-08T13:13:03;100899.00;;;21.15;26.58
16613;BME280;8419;52.358;9.752;2024-03-08T13:15:50;100897.00;;;21.47;26.38
16613;BME280;8419;52.358;9.752;2024-03-08T13:18:36;100891.00;;;21.74;26.07
16613;BME280;8419;52.358;9.752;2024-03-08T13:21:22;100889.00;;;21.97;25.90
16613;BME280;8419;52.358;9.752;2024-03-08T13:24:09;100875.00;;;22.14;25.83
16613;BME280;8419;52.358;9.752;2024-03-08T13:26:56;100872.00;;;22.20;25.77
16613;BME280;8419;52.358;9.752;2024-03-08T13:29:43;100872.00;;;22.43;25.59
16613;BME280;8419;52.358;9.752;2024-03-08T13:32:28;100872.00;;;22.51;25.32
16613;BME280;8419;52.358;9.752;2024-03-08T13:35:15;100867.00;;;22.62;25.20
16613;BME280;8419;52.358;9.752;2024-03-08T13:38:01;100870.00;;;22.55;25.24
16613;BME280;8419;52.358;9.752;2024-03-08T13:40:48;100867.00;;;22.60;25.13
16613;BME280;8419;52.358;9.752;2024-03-08T13:43:34;100868.00;;;23.01;24.57
16613;BME280;8419;52.358;9.752;2024-03-08T13:46:21;100853.00;;;22.91;24.67
16613;BME280;8419;52.358;9.752;2024-03-08T13:49:07;100854.00;;;23.02;24.55
16613;BME280;8419;52.358;9.752;2024-03-08T13:51:54;100851.00;;;22.90;24.64
16613;BME280;8419;52.358;9.752;2024-03-08T13:54:41;100841.00;;;22.50;25.10
16613;BME280;8419;52.358;9.752;2024-03-08T13:57:27;100850.00;;;22.50;25.14
16613;BME280;8419;52.358;9.752;2024-03-08T14:00:15;100840.00;;;22.61;25.00
16613;BME280;8419;52.358;9.752;2024-03-08T14:03:00;100838.00;;;22.74;24.85
16613;BME280;8419;52.358;9.752;2024-03-08T14:05:46;100816.00;;;22.84;24.77
16613;BME280;8419;52.358;9.752;2024-03-08T14:08:32;100822.00;;;22.83;24.54
16613;BME280;8419;52.358;9.752;2024-03-08T14:11:18;100809.00;;;22.83;24.50
16613;BME280;8419;52.358;9.752;2024-03-08T14:14:04;100813.00;;;22.87;24.38
16613;BME280;8419;52.358;9.752;2024-03-08T14:16:49;100814.00;;;23.05;24.24
16613;BME280;8419;52.358;9.752;2024-03-08T14:19:38;100810.00;;;23.24;24.09
16613;BME280;8419;52.358;9.752;2024-03-08T14:22:24;100799.00;;;23.72;23.65
16613;BME280;8419;52.358;9.752;2024-03-08T14:25:09;100813.00;;;24.03;23.31
16613;BME280;8419;52.358;9.752;2024-03-08T14:28:02;100817.00;;;24.15;23.13
16613;BME280;8419;52.358;9.752;2024-03-08T14:30:51;100799.00;;;24.11;23.12
16613;BME280;8419;52.358;9.752;2024-03-08T14:33:37;100801.00;;;24.41;22.83
16613;BME280;8419;52.358;9.752;2024-03-08T14:36:23;100798.00;;;24.88;22.42
16613;BME280;8419;52.358;9.752;2024-03-08T14:39:10;100792.00;;;25.05;22.16
16613;BME280;8419;52.358;9.752;2024-03-08T14:41:56;100795.00;;;24.86;22.14
16613;BME280;8419;52.358;9.752;2024-03-08T14:44:45;100788.00;;;24.88;22.07
16613;BME280;8419;52.358;9.752;2024-03-08T14:47:35;100779.00;;;24.86;21.93
16613;BME280;8419;52.358;9.752;2024-03-08T14:50:23;100782.00;;;24.56;22.22
16613;BME280;8419;52.358;9.752;2024-03-08T14:53:09;100781.00;;;24.25;22.48
16613;BME280;8419;52.358;9.752;2024-03-08T14:55:54;100778.00;;;24.26;22.50